sensor_id;sensor_type;location;lat;lon;timestamp;P1;durP1;ratioP1;P2;durP2;ratioP2
16173;SDS011;14031;50.158;8.626;2023-04-15T00:00:07;3.33;;;3.03;;
16173;SDS011;14031;50.158;8.626;2023-04-15T00:02:35;2.70;;;2.57;;
16173;SDS011;14031;50.158;8.626;2023-04-15T00:05:02;4.83;;;3.37;;
16173;SDS011;14031;50.158;8.626;2023-04-15T00:07:30;2.80;;;2.60;;
16173;SDS011;14031;50.158;8.626;2023-04-15T00:09:57;3.00;;;2.80;;
16173;SDS011;14031;50.158;8.626;2023-04-15T00:12:24;3.30;;;3.00;;
16173;SDS011;14031;50.158;8.626;2023-04-15T00:14:52;4.87;;;3.00;;
16173;SDS011;14031;50.158;8.626;2023-04-15T00:17:21;2.97;;;2.77;;
16173;SDS011;14031;50.158;8.626;2023-04-15T00:19:47;3.20;;;2.90;;
16173;SDS011;14031;50.158;8.626;2023-04-15T00:22:14;2.97;;;2.80;;
16173;SDS011;14031;50.158;8.626;2023-04-15T00:24:41;2.77;;;2.63;;
16173;SDS011;14031;50.158;8.626;2023-04-15T00:27:08;3.03;;;2.70;;
16173;SDS011;14031;50.158;8.626;2023-04-15T00:29:35;2.63;;;2.40;;
16173;SDS011;14031;50.158;8.626;2023-04-15T00:32:03;2.87;;;2.67;;
16173;SDS011;14031;50.158;8.626;2023-04-15T00:34:30;6.20;;;2.63;;
16173;SDS011;14031;50.158;8.626;2023-04-15T00:36:57;4.17;;;2.60;;
16173;SDS011;14031;50.158;8.626;2023-04-15T00:39:24;3.63;;;3.27;;
16173;SDS011;14031;50.158;8.626;2023-04-15T00:41:52;3.50;;;3.30;;
16173;SDS011;14031;50.158;8.626;2023-04-15T00:44:19;3.13;;;2.73;;
16173;SDS011;14031;50.158;8.626;2023-04-15T00:46:46;3.57;;;3.10;;
16173;SDS011;14031;50.158;8.626;2023-04-15T00:49:17;4.13;;;3.33;;
16173;SDS011;14031;50.158;8.626;2023-04-15T00:51:44;3.23;;;2.93;;
16173;SDS011;14031;50.158;8.626;2023-04-15T00:54:13;3.40;;;3.10;;
16173;SDS011;14031;50.158;8.626;2023-04-15T00:56:40;3.03;;;2.83;;
16173;SDS011;14031;50.158;8.626;2023-04-15T00:59:07;4.27;;;3.07;;
16173;SDS011;14031;50.158;8.626;2023-04-15T01:01:34;2.80;;;2.60;;
16173;SDS011;14031;50.158;8.626;2023-04-15T01:04:02;2.83;;;2.63;;
16173;SDS011;14031;50.158;8.626;2023-04-15T01:06:31;3.73;;;2.60;;
16173;SDS011;14031;50.158;8.626;2023-04-15T01:08:58;3.10;;;2.90;;
16173;SDS011;14031;50.158;8.626;2023-04-15T01:11:25;3.23;;;2.70;;
16173;SDS011;14031;50.158;8.626;2023-04-15T01:13:52;7.03;;;2.80;;
16173;SDS011;14031;50.158;8.626;2023-04-15T01:16:21;3.87;;;2.60;;
16173;SDS011;14031;50.158;8.626;2023-04-15T01:18:48;2.70;;;2.50;;
16173;SDS011;14031;50.158;8.626;2023-04-15T01:21:16;5.00;;;3.00;;
16173;SDS011;14031;50.158;8.626;2023-04-15T01:23:45;3.37;;;3.07;;
16173;SDS011;14031;50.158;8.626;2023-04-15T01:26:17;2.97;;;2.67;;
16173;SDS011;14031;50.158;8.626;2023-04-15T01:28:45;3.20;;;2.70;;
16173;SDS011;14031;50.158;8.626;2023-04-15T01:31:13;2.70;;;2.50;;
16173;SDS011;14031;50.158;8.626;2023-04-15T01:33:41;3.10;;;2.70;;
16173;SDS011;14031;50.158;8.626;2023-04-15T01:36:08;4.33;;;2.53;;
16173;SDS011;14031;50.158;8.626;2023-04-15T01:38:36;3.30;;;2.73;;
16173;SDS011;14031;50.158;8.626;2023-04-15T01:41:03;3.60;;;3.10;;
16173;SDS011;14031;50.158;8.626;2023-04-15T01:43:38;9.10;;;2.97;;
16173;SDS011;14031;50.158;8.626;2023-04-15T01:46:05;4.20;;;2.90;;
16173;SDS011;14031;50.158;8.626;2023-04-15T01:48:32;5.20;;;2.80;;
16173;SDS011;14031;50.158;8.626;2023-04-15T01:50:58;2.60;;;2.40;;
16173;SDS011;14031;50.158;8.626;2023-04-15T01:53:26;4.97;;;2.77;;
16173;SDS011;14031;50.158;8.626;2023-04-15T01:55:53;3.00;;;2.80;;
16173;SDS011;14031;50.158;8.626;2023-04-15T01:58:22;2.80;;;2.57;;
16173;SDS011;14031;50.158;8.626;2023-04-15T02:00:52;5.13;;;2.80;;
16173;SDS011;14031;50.158;8.626;2023-04-15T02:03:19;3.83;;;2.70;;
16173;SDS011;14031;50.158;8.626;2023-04-15T02:05:46;2.93;;;2.73;;
16173;SDS011;14031;50.158;8.626;2023-04-15T02:08:13;3.27;;;2.90;;
16173;SDS011;14031;50.158;8.626;2023-04-15T02:10:39;3.17;;;2.97;;
16173;SDS011;14031;50.158;8.626;2023-04-15T02:13:06;3.03;;;2.80;;
16173;SDS011;14031;50.158;8.626;2023-04-15T02:15:33;3.40;;;2.90;;
16173;SDS011;14031;50.158;8.626;2023-04-15T02:18:01;3.80;;;3.23;;
16173;SDS011;14031;50.158;8.626;2023-04-15T02:20:29;4.03;;;3.03;;
16173;SDS011;14031;50.158;8.626;2023-04-15T02:22:56;3.23;;;2.83;;
16173;SDS011;14031;50.158;8.626;2023-04-15T02:25:22;3.17;;;2.97;;
16173;SDS011;14031;50.158;8.626;2023-04-15T02:27:49;3.50;;;3.23;;
16173;SDS011;14031;50.158;8.626;2023-04-15T02:30:17;3.90;;;3.60;;
16173;SDS011;14031;50.158;8.626;2023-04-15T02:32:44;4.80;;;3.50;;
16173;SDS011;14031;50.158;8.626;2023-04-15T02:35:13;4.17;;;3.77;;
16173;SDS011;14031;50.158;8.626;2023-04-15T02:37:43;4.47;;;3.27;;
16173;SDS011;14031;50.158;8.626;2023-04-15T02:40:10;3.70;;;3.40;;
16173;SDS011;14031;50.158;8.626;2023-04-15T02:42:37;6.13;;;3.33;;
16173;SDS011;14031;50.158;8.626;2023-04-15T02:45:04;3.70;;;3.50;;
16173;SDS011;14031;50.158;8.626;2023-04-15T02:47:36;5.63;;;3.80;;
16173;SDS011;14031;50.158;8.626;2023-04-15T02:50:06;6.33;;;3.50;;
16173;SDS011;14031;50.158;8.626;2023-04-15T02:52:37;6.00;;;3.20;;
16173;SDS011;14031;50.158;8.626;2023-04-15T02:55:05;5.00;;;2.93;;
16173;SDS011;14031;50.158;8.626;2023-04-15T02:57:33;5.57;;;3.60;;
16173;SDS011;14031;50.158;8.626;2023-04-15T03:00:03;3.63;;;3.33;;
16173;SDS011;14031;50.158;8.626;2023-04-15T03:02:32;3.53;;;3.33;;
16173;SDS011;14031;50.158;8.626;2023-04-15T03:04:59;3.50;;;3.20;;
16173;SDS011;14031;50.158;8.626;2023-04-15T03:07:26;4.53;;;2.97;;
16173;SDS011;14031;50.158;8.626;2023-04-15T03:09:54;4.47;;;2.90;;
16173;SDS011;14031;50.158;8.626;2023-04-15T03:12:21;3.50;;;3.20;;
16173;SDS011;14031;50.158;8.626;2023-04-15T03:14:47;3.30;;;3.03;;
16173;SDS011;14031;50.158;8.626;2023-04-15T03:17:14;3.77;;;3.47;;
16173;SDS011;14031;50.158;8.626;2023-04-15T03:19:42;3.17;;;2.97;;
16173;SDS011;14031;50.158;8.626;2023-04-15T03:22:09;5.40;;;3.17;;
16173;SDS011;14031;50.158;8.626;2023-04-15T03:24:36;3.87;;;2.73;;
16173;SDS011;14031;50.158;8.626;2023-04-15T03:27:06;6.33;;;3.30;;
16173;SDS011;14031;50.158;8.626;2023-04-15T03:29:33;3.77;;;3.57;;
16173;SDS011;14031;50.158;8.626;2023-04-15T03:32:00;3.30;;;3.00;;
16173;SDS011;14031;50.158;8.626;2023-04-15T03:34:27;3.60;;;3.30;;
16173;SDS011;14031;50.158;8.626;2023-04-15T03:36:54;3.60;;;3.30;;
16173;SDS011;14031;50.158;8.626;2023-04-15T03:39:21;3.50;;;3.20;;
16173;SDS011;14031;50.158;8.626;2023-04-15T03:41:47;7.00;;;3.27;;
16173;SDS011;14031;50.158;8.626;2023-04-15T03:44:16;3.53;;;3.23;;
16173;SDS011;14031;50.158;8.626;2023-04-15T03:46:42;3.87;;;3.50;;
16173;SDS011;14031;50.158;8.626;2023-04-15T03:49:09;4.43;;;3.43;;
16173;SDS011;14031;50.158;8.626;2023-04-15T03:51:36;3.80;;;3.50;;
16173;SDS011;14031;50.158;8.626;2023-04-15T03:54:03;3.87;;;3.30;;
16173;SDS011;14031;50.158;8.626;2023-04-15T03:56:30;4.00;;;3.80;;
16173;SDS011;14031;50.158;8.626;2023-04-15T03:58:56;3.93;;;3.50;;
16173;SDS011;14031;50.158;8.626;2023-04-15T04:01:24;3.73;;;3.53;;
16173;SDS011;14031;50.158;8.626;2023-04-15T04:03:51;4.37;;;3.97;;
16173;SDS011;14031;50.158;8.626;2023-04-15T04:06:18;4.83;;;4.10;;
16173;SDS011;14031;50.158;8.626;2023-04-15T04:08:45;3.83;;;3.60;;
16173;SDS011;14031;50.158;8.626;2023-04-15T04:11:12;4.40;;;4.10;;
16173;SDS011;14031;50.158;8.626;2023-04-15T04:13:39;4.37;;;3.93;;
16173;SDS011;14031;50.158;8.626;2023-04-15T04:16:05;4.10;;;3.70;;
16173;SDS011;14031;50.158;8.626;2023-04-15T04:18:33;4.00;;;3.70;;
16173;SDS011;14031;50.158;8.626;2023-04-15T04:21:00;3.90;;;3.60;;
16173;SDS011;14031;50.158;8.626;2023-04-15T04:23:27;3.93;;;3.73;;
16173;SDS011;14031;50.158;8.626;2023-04-15T04:25:54;4.07;;;3.77;;
16173;SDS011;14031;50.158;8.626;2023-04-15T04:28:21;4.53;;;3.70;;
16173;SDS011;14031;50.158;8.626;2023-04-15T04:30:48;7.63;;;4.00;;
16173;SDS011;14031;50.158;8.626;2023-04-15T04:33:15;4.20;;;4.00;;
16173;SDS011;14031;50.158;8.626;2023-04-15T04:35:43;4.33;;;3.97;;
16173;SDS011;14031;50.158;8.626;2023-04-15T04:38:10;4.67;;;4.17;;
16173;SDS011;14031;50.158;8.626;2023-04-15T04:40:37;6.00;;;3.70;;
16173;SDS011;14031;50.158;8.626;2023-04-15T04:43:03;4.07;;;3.77;;
16173;SDS011;14031;50.158;8.626;2023-04-15T04:45:30;5.97;;;4.00;;
16173;SDS011;14031;50.158;8.626;2023-04-15T04:47:57;4.73;;;3.90;;
16173;SDS011;14031;50.158;8.626;2023-04-15T04:50:24;4.50;;;4.03;;
16173;SDS011;14031;50.158;8.626;2023-04-15T04:52:52;4.20;;;3.80;;
16173;SDS011;14031;50.158;8.626;2023-04-15T04:55:19;18.10;;;4.50;;
16173;SDS011;14031;50.158;8.626;2023-04-15T04:57:46;4.70;;;4.37;;
16173;SDS011;14031;50.158;8.626;2023-04-15T05:00:13;6.57;;;4.67;;
16173;SDS011;14031;50.158;8.626;2023-04-15T05:02:40;5.83;;;3.83;;
16173;SDS011;14031;50.158;8.626;2023-04-15T05:05:08;4.83;;;4.43;;
16173;SDS011;14031;50.158;8.626;2023-04-15T05:07:35;5.33;;;4.73;;
16173;SDS011;14031;50.158;8.626;2023-04-15T05:10:03;5.03;;;4.13;;
16173;SDS011;14031;50.158;8.626;2023-04-15T05:12:31;5.00;;;4.50;;
16173;SDS011;14031;50.158;8.626;2023-04-15T05:14:58;5.30;;;4.40;;
16173;SDS011;14031;50.158;8.626;2023-04-15T05:17:25;6.37;;;4.53;;
16173;SDS011;14031;50.158;8.626;2023-04-15T05:19:51;4.83;;;4.33;;
16173;SDS011;14031;50.158;8.626;2023-04-15T05:22:18;5.63;;;4.43;;
16173;SDS011;14031;50.158;8.626;2023-04-15T05:24:45;8.40;;;4.30;;
16173;SDS011;14031;50.158;8.626;2023-04-15T05:27:13;5.63;;;4.37;;
16173;SDS011;14031;50.158;8.626;2023-04-15T05:29:40;5.10;;;4.70;;
16173;SDS011;14031;50.158;8.626;2023-04-15T05:32:07;4.73;;;4.43;;
16173;SDS011;14031;50.158;8.626;2023-04-15T05:34:33;7.47;;;4.53;;
16173;SDS011;14031;50.158;8.626;2023-04-15T05:37:00;4.43;;;4.00;;
16173;SDS011;14031;50.158;8.626;2023-04-15T05:39:27;5.77;;;4.60;;
16173;SDS011;14031;50.158;8.626;2023-04-15T05:41:54;5.00;;;4.60;;
16173;SDS011;14031;50.158;8.626;2023-04-15T05:44:23;4.87;;;4.43;;
16173;SDS011;14031;50.158;8.626;2023-04-15T05:46:50;5.77;;;4.53;;
16173;SDS011;14031;50.158;8.626;2023-04-15T05:49:17;5.00;;;4.57;;
16173;SDS011;14031;50.158;8.626;2023-04-15T05:51:44;5.50;;;4.33;;
16173;SDS011;14031;50.158;8.626;2023-04-15T05:54:12;5.40;;;4.97;;
16173;SDS011;14031;50.158;8.626;2023-04-15T05:56:39;4.70;;;4.37;;
16173;SDS011;14031;50.158;8.626;2023-04-15T05:59:06;4.83;;;4.43;;
16173;SDS011;14031;50.158;8.626;2023-04-15T06:01:34;5.67;;;4.30;;
16173;SDS011;14031;50.158;8.626;2023-04-15T06:04:01;4.70;;;4.40;;
16173;SDS011;14031;50.158;8.626;2023-04-15T06:06:27;4.60;;;4.20;;
16173;SDS011;14031;50.158;8.626;2023-04-15T06:08:54;4.40;;;4.10;;
16173;SDS011;14031;50.158;8.626;2023-04-15T06:11:21;7.17;;;3.87;;
16173;SDS011;14031;50.158;8.626;2023-04-15T06:13:48;5.03;;;4.67;;
16173;SDS011;14031;50.158;8.626;2023-04-15T06:16:15;7.67;;;4.70;;
16173;SDS011;14031;50.158;8.626;2023-04-15T06:18:43;5.13;;;4.73;;
16173;SDS011;14031;50.158;8.626;2023-04-15T06:21:10;4.43;;;4.13;;
16173;SDS011;14031;50.158;8.626;2023-04-15T06:23:37;6.37;;;4.40;;
16173;SDS011;14031;50.158;8.626;2023-04-15T06:26:05;4.30;;;3.97;;
16173;SDS011;14031;50.158;8.626;2023-04-15T06:28:31;5.10;;;4.30;;
16173;SDS011;14031;50.158;8.626;2023-04-15T06:30:58;15.03;;;10.10;;
16173;SDS011;14031;50.158;8.626;2023-04-15T06:33:25;9.13;;;6.87;;
16173;SDS011;14031;50.158;8.626;2023-04-15T06:35:54;12.03;;;8.40;;
16173;SDS011;14031;50.158;8.626;2023-04-15T06:38:21;10.63;;;8.27;;
16173;SDS011;14031;50.158;8.626;2023-04-15T06:40:47;7.63;;;6.53;;
16173;SDS011;14031;50.158;8.626;2023-04-15T06:43:14;22.47;;;14.87;;
16173;SDS011;14031;50.158;8.626;2023-04-15T06:45:41;9.00;;;8.10;;
16173;SDS011;14031;50.158;8.626;2023-04-15T06:48:08;6.63;;;5.00;;
16173;SDS011;14031;50.158;8.626;2023-04-15T06:50:35;4.23;;;3.93;;
16173;SDS011;14031;50.158;8.626;2023-04-15T06:53:03;4.43;;;4.13;;
16173;SDS011;14031;50.158;8.626;2023-04-15T06:55:30;4.53;;;4.13;;
16173;SDS011;14031;50.158;8.626;2023-04-15T06:57:57;5.17;;;4.67;;
16173;SDS011;14031;50.158;8.626;2023-04-15T07:00:24;4.60;;;4.30;;
16173;SDS011;14031;50.158;8.626;2023-04-15T07:02:52;4.57;;;4.27;;
16173;SDS011;14031;50.158;8.626;2023-04-15T07:05:20;7.17;;;4.23;;
16173;SDS011;14031;50.158;8.626;2023-04-15T07:07:47;4.87;;;4.47;;
16173;SDS011;14031;50.158;8.626;2023-04-15T07:10:15;5.83;;;4.40;;
16173;SDS011;14031;50.158;8.626;2023-04-15T07:12:42;4.83;;;4.33;;
16173;SDS011;14031;50.158;8.626;2023-04-15T07:15:09;5.73;;;4.27;;
16173;SDS011;14031;50.158;8.626;2023-04-15T07:17:36;4.67;;;4.37;;
16173;SDS011;14031;50.158;8.626;2023-04-15T07:20:03;4.53;;;4.13;;
16173;SDS011;14031;50.158;8.626;2023-04-15T07:22:31;6.93;;;4.40;;
16173;SDS011;14031;50.158;8.626;2023-04-15T07:24:58;6.67;;;4.50;;
16173;SDS011;14031;50.158;8.626;2023-04-15T07:27:26;6.17;;;4.53;;
16173;SDS011;14031;50.158;8.626;2023-04-15T07:29:53;5.47;;;4.20;;
16173;SDS011;14031;50.158;8.626;2023-04-15T07:32:20;4.73;;;4.27;;
16173;SDS011;14031;50.158;8.626;2023-04-15T07:34:47;4.90;;;4.40;;
16173;SDS011;14031;50.158;8.626;2023-04-15T07:37:14;4.60;;;4.30;;
16173;SDS011;14031;50.158;8.626;2023-04-15T07:39:41;4.60;;;4.20;;
16173;SDS011;14031;50.158;8.626;2023-04-15T07:42:08;5.03;;;4.63;;
16173;SDS011;14031;50.158;8.626;2023-04-15T07:44:37;5.70;;;4.10;;
16173;SDS011;14031;50.158;8.626;2023-04-15T07:47:03;6.63;;;4.60;;
16173;SDS011;14031;50.158;8.626;2023-04-15T07:49:30;4.60;;;4.20;;
16173;SDS011;14031;50.158;8.626;2023-04-15T07:51:57;4.80;;;4.47;;
16173;SDS011;14031;50.158;8.626;2023-04-15T07:54:24;4.40;;;4.07;;
16173;SDS011;14031;50.158;8.626;2023-04-15T07:56:51;6.87;;;4.13;;
16173;SDS011;14031;50.158;8.626;2023-04-15T07:59:18;5.43;;;4.93;;
16173;SDS011;14031;50.158;8.626;2023-04-15T08:01:46;4.50;;;4.30;;
16173;SDS011;14031;50.158;8.626;2023-04-15T08:04:14;5.47;;;5.03;;
16173;SDS011;14031;50.158;8.626;2023-04-15T08:06:41;4.70;;;4.40;;
16173;SDS011;14031;50.158;8.626;2023-04-15T08:09:08;4.83;;;4.37;;
16173;SDS011;14031;50.158;8.626;2023-04-15T08:11:35;5.30;;;4.80;;
16173;SDS011;14031;50.158;8.626;2023-04-15T08:14:02;4.63;;;4.20;;
16173;SDS011;14031;50.158;8.626;2023-04-15T08:16:28;5.17;;;4.30;;
16173;SDS011;14031;50.158;8.626;2023-04-15T08:18:57;4.40;;;4.00;;
16173;SDS011;14031;50.158;8.626;2023-04-15T08:21:23;4.20;;;3.90;;
16173;SDS011;14031;50.158;8.626;2023-04-15T08:23:51;4.23;;;3.67;;
16173;SDS011;14031;50.158;8.626;2023-04-15T08:26:19;4.50;;;4.10;;
16173;SDS011;14031;50.158;8.626;2023-04-15T08:28:47;3.47;;;3.27;;
16173;SDS011;14031;50.158;8.626;2023-04-15T08:31:14;3.83;;;3.53;;
16173;SDS011;14031;50.158;8.626;2023-04-15T08:33:42;5.67;;;3.10;;
16173;SDS011;14031;50.158;8.626;2023-04-15T08:36:10;3.20;;;3.00;;
16173;SDS011;14031;50.158;8.626;2023-04-15T08:38:37;3.20;;;3.00;;
16173;SDS011;14031;50.158;8.626;2023-04-15T08:41:06;3.73;;;3.43;;
16173;SDS011;14031;50.158;8.626;2023-04-15T08:43:38;4.27;;;4.00;;
16173;SDS011;14031;50.158;8.626;2023-04-15T08:46:12;4.27;;;3.97;;
16173;SDS011;14031;50.158;8.626;2023-04-15T08:48:40;5.63;;;4.40;;
16173;SDS011;14031;50.158;8.626;2023-04-15T08:51:09;4.20;;;3.90;;
16173;SDS011;14031;50.158;8.626;2023-04-15T08:53:40;6.63;;;4.27;;
16173;SDS011;14031;50.158;8.626;2023-04-15T08:56:07;4.90;;;4.50;;
16173;SDS011;14031;50.158;8.626;2023-04-15T08:58:37;6.00;;;5.57;;
16173;SDS011;14031;50.158;8.626;2023-04-15T09:01:04;4.80;;;4.50;;
16173;SDS011;14031;50.158;8.626;2023-04-15T09:03:31;5.47;;;4.50;;
16173;SDS011;14031;50.158;8.626;2023-04-15T09:05:59;5.13;;;4.63;;
16173;SDS011;14031;50.158;8.626;2023-04-15T09:08:27;4.50;;;4.20;;
16173;SDS011;14031;50.158;8.626;2023-04-15T09:10:54;5.00;;;4.60;;
16173;SDS011;14031;50.158;8.626;2023-04-15T09:13:21;4.57;;;4.27;;
16173;SDS011;14031;50.158;8.626;2023-04-15T09:15:48;4.50;;;4.27;;
16173;SDS011;14031;50.158;8.626;2023-04-15T09:18:25;4.70;;;4.30;;
16173;SDS011;14031;50.158;8.626;2023-04-15T09:20:53;3.03;;;2.77;;
16173;SDS011;14031;50.158;8.626;2023-04-15T09:23:20;2.60;;;2.40;;
16173;SDS011;14031;50.158;8.626;2023-04-15T09:25:48;2.30;;;2.13;;
16173;SDS011;14031;50.158;8.626;2023-04-15T09:28:22;2.60;;;2.40;;
16173;SDS011;14031;50.158;8.626;2023-04-15T09:30:50;2.50;;;2.40;;
16173;SDS011;14031;50.158;8.626;2023-04-15T09:33:18;2.70;;;2.60;;
16173;SDS011;14031;50.158;8.626;2023-04-15T09:35:55;4.13;;;3.10;;
16173;SDS011;14031;50.158;8.626;2023-04-15T09:38:23;2.90;;;2.70;;
16173;SDS011;14031;50.158;8.626;2023-04-15T09:40:51;2.50;;;2.40;;
16173;SDS011;14031;50.158;8.626;2023-04-15T09:43:18;3.47;;;2.93;;
16173;SDS011;14031;50.158;8.626;2023-04-15T09:45:46;3.10;;;2.90;;
16173;SDS011;14031;50.158;8.626;2023-04-15T09:48:15;3.03;;;2.77;;
16173;SDS011;14031;50.158;8.626;2023-04-15T09:50:45;3.30;;;3.00;;
16173;SDS011;14031;50.158;8.626;2023-04-15T09:53:14;3.03;;;2.90;;
16173;SDS011;14031;50.158;8.626;2023-04-15T09:55:43;3.47;;;3.27;;
16173;SDS011;14031;50.158;8.626;2023-04-15T09:58:17;3.60;;;3.30;;
16173;SDS011;14031;50.158;8.626;2023-04-15T10:00:46;2.47;;;2.27;;
16173;SDS011;14031;50.158;8.626;2023-04-15T10:03:15;2.80;;;2.40;;
16173;SDS011;14031;50.158;8.626;2023-04-15T10:05:45;2.40;;;2.30;;
16173;SDS011;14031;50.158;8.626;2023-04-15T10:08:14;2.07;;;1.97;;
16173;SDS011;14031;50.158;8.626;2023-04-15T10:10:43;2.27;;;2.10;;
16173;SDS011;14031;50.158;8.626;2023-04-15T10:13:11;3.27;;;2.60;;
16173;SDS011;14031;50.158;8.626;2023-04-15T10:15:41;3.20;;;2.27;;
16173;SDS011;14031;50.158;8.626;2023-04-15T10:18:11;3.27;;;2.93;;
16173;SDS011;14031;50.158;8.626;2023-04-15T10:20:40;2.60;;;2.50;;
16173;SDS011;14031;50.158;8.626;2023-04-15T10:23:07;2.43;;;2.30;;
16173;SDS011;14031;50.158;8.626;2023-04-15T10:25:35;3.93;;;3.00;;
16173;SDS011;14031;50.158;8.626;2023-04-15T10:28:05;3.10;;;2.80;;
16173;SDS011;14031;50.158;8.626;2023-04-15T10:30:32;4.77;;;3.20;;
16173;SDS011;14031;50.158;8.626;2023-04-15T10:33:00;3.10;;;2.80;;
16173;SDS011;14031;50.158;8.626;2023-04-15T10:35:28;2.90;;;2.70;;
16173;SDS011;14031;50.158;8.626;2023-04-15T10:37:55;2.50;;;2.40;;
16173;SDS011;14031;50.158;8.626;2023-04-15T10:40:24;4.27;;;3.30;;
16173;SDS011;14031;50.158;8.626;2023-04-15T10:42:52;2.90;;;2.70;;
16173;SDS011;14031;50.158;8.626;2023-04-15T10:45:20;3.40;;;3.10;;
16173;SDS011;14031;50.158;8.626;2023-04-15T10:47:51;2.50;;;2.40;;
16173;SDS011;14031;50.158;8.626;2023-04-15T10:50:21;3.63;;;3.00;;
16173;SDS011;14031;50.158;8.626;2023-04-15T10:52:50;3.50;;;2.50;;
16173;SDS011;14031;50.158;8.626;2023-04-15T10:55:18;2.67;;;2.50;;
16173;SDS011;14031;50.158;8.626;2023-04-15T10:57:46;3.63;;;2.50;;
16173;SDS011;14031;50.158;8.626;2023-04-15T11:00:18;2.53;;;2.43;;
16173;SDS011;14031;50.158;8.626;2023-04-15T11:02:46;3.90;;;2.30;;
16173;SDS011;14031;50.158;8.626;2023-04-15T11:05:17;2.63;;;2.43;;
16173;SDS011;14031;50.158;8.626;2023-04-15T11:07:50;2.70;;;2.50;;
16173;SDS011;14031;50.158;8.626;2023-04-15T11:13:19;2.53;;;2.43;;
16173;SDS011;14031;50.158;8.626;2023-04-15T11:15:48;2.37;;;2.17;;
16173;SDS011;14031;50.158;8.626;2023-04-15T11:18:16;2.70;;;2.30;;
16173;SDS011;14031;50.158;8.626;2023-04-15T11:20:44;2.47;;;2.27;;
16173;SDS011;14031;50.158;8.626;2023-04-15T11:23:13;3.90;;;2.33;;
16173;SDS011;14031;50.158;8.626;2023-04-15T11:25:41;2.93;;;2.70;;
16173;SDS011;14031;50.158;8.626;2023-04-15T11:28:09;2.67;;;2.47;;
16173;SDS011;14031;50.158;8.626;2023-04-15T11:30:37;2.37;;;2.27;;
16173;SDS011;14031;50.158;8.626;2023-04-15T11:33:05;2.70;;;2.50;;
16173;SDS011;14031;50.158;8.626;2023-04-15T11:35:33;2.80;;;2.70;;
16173;SDS011;14031;50.158;8.626;2023-04-15T11:38:01;2.70;;;2.60;;
16173;SDS011;14031;50.158;8.626;2023-04-15T11:40:30;3.20;;;2.67;;
16173;SDS011;14031;50.158;8.626;2023-04-15T11:43:02;2.90;;;2.70;;
16173;SDS011;14031;50.158;8.626;2023-04-15T11:45:30;3.30;;;3.10;;
16173;SDS011;14031;50.158;8.626;2023-04-15T11:48:03;4.37;;;4.07;;
16173;SDS011;14031;50.158;8.626;2023-04-15T11:50:31;3.50;;;3.30;;
16173;SDS011;14031;50.158;8.626;2023-04-15T11:53:35;3.63;;;3.33;;
16173;SDS011;14031;50.158;8.626;2023-04-15T11:56:06;2.97;;;2.77;;
16173;SDS011;14031;50.158;8.626;2023-04-15T11:58:34;2.70;;;2.60;;
16173;SDS011;14031;50.158;8.626;2023-04-15T12:01:02;3.03;;;2.83;;
16173;SDS011;14031;50.158;8.626;2023-04-15T12:03:35;2.70;;;2.60;;
16173;SDS011;14031;50.158;8.626;2023-04-15T12:06:07;3.10;;;2.90;;
16173;SDS011;14031;50.158;8.626;2023-04-15T12:08:58;2.90;;;2.80;;
16173;SDS011;14031;50.158;8.626;2023-04-15T12:11:38;5.83;;;2.97;;
16173;SDS011;14031;50.158;8.626;2023-04-15T12:14:15;3.90;;;3.30;;
16173;SDS011;14031;50.158;8.626;2023-04-15T12:16:47;2.73;;;2.63;;
16173;SDS011;14031;50.158;8.626;2023-04-15T12:19:16;3.57;;;2.63;;
16173;SDS011;14031;50.158;8.626;2023-04-15T12:21:46;3.17;;;2.97;;
16173;SDS011;14031;50.158;8.626;2023-04-15T12:24:14;3.30;;;2.70;;
16173;SDS011;14031;50.158;8.626;2023-04-15T12:26:46;4.13;;;3.07;;
16173;SDS011;14031;50.158;8.626;2023-04-15T12:29:15;3.00;;;2.70;;
16173;SDS011;14031;50.158;8.626;2023-04-15T12:31:46;2.50;;;2.40;;
16173;SDS011;14031;50.158;8.626;2023-04-15T12:34:17;1.30;;;1.30;;
16173;SDS011;14031;50.158;8.626;2023-04-15T12:36:44;1.10;;;1.10;;
16173;SDS011;14031;50.158;8.626;2023-04-15T12:39:11;0.93;;;0.93;;
16173;SDS011;14031;50.158;8.626;2023-04-15T12:41:38;1.00;;;1.00;;
16173;SDS011;14031;50.158;8.626;2023-04-15T12:44:07;0.90;;;0.90;;
16173;SDS011;14031;50.158;8.626;2023-04-15T12:46:34;0.80;;;0.80;;
16173;SDS011;14031;50.158;8.626;2023-04-15T12:49:01;1.00;;;1.00;;
16173;SDS011;14031;50.158;8.626;2023-04-15T12:51:27;1.00;;;1.00;;
16173;SDS011;14031;50.158;8.626;2023-04-15T12:53:55;0.97;;;0.97;;
16173;SDS011;14031;50.158;8.626;2023-04-15T12:56:22;1.20;;;1.20;;
16173;SDS011;14031;50.158;8.626;2023-04-15T12:58:49;1.20;;;1.20;;
16173;SDS011;14031;50.158;8.626;2023-04-15T13:01:17;0.90;;;0.90;;
16173;SDS011;14031;50.158;8.626;2023-04-15T13:03:44;0.90;;;0.90;;
16173;SDS011;14031;50.158;8.626;2023-04-15T13:06:12;0.67;;;0.67;;
16173;SDS011;14031;50.158;8.626;2023-04-15T13:08:38;0.73;;;0.73;;
16173;SDS011;14031;50.158;8.626;2023-04-15T13:11:05;0.90;;;0.90;;
16173;SDS011;14031;50.158;8.626;2023-04-15T13:13:32;0.60;;;0.60;;
16173;SDS011;14031;50.158;8.626;2023-04-15T13:15:59;2.23;;;0.90;;
16173;SDS011;14031;50.158;8.626;2023-04-15T13:18:28;0.90;;;0.90;;
16173;SDS011;14031;50.158;8.626;2023-04-15T13:20:55;0.90;;;0.90;;
16173;SDS011;14031;50.158;8.626;2023-04-15T13:23:22;0.90;;;0.90;;
16173;SDS011;14031;50.158;8.626;2023-04-15T13:25:49;0.60;;;0.60;;
16173;SDS011;14031;50.158;8.626;2023-04-15T13:28:16;1.10;;;0.80;;
16173;SDS011;14031;50.158;8.626;2023-04-15T13:30:43;0.80;;;0.80;;
16173;SDS011;14031;50.158;8.626;2023-04-15T13:33:10;0.83;;;0.83;;
16173;SDS011;14031;50.158;8.626;2023-04-15T13:35:38;1.07;;;0.80;;
16173;SDS011;14031;50.158;8.626;2023-04-15T13:38:05;0.70;;;0.70;;
16173;SDS011;14031;50.158;8.626;2023-04-15T13:40:32;0.80;;;0.80;;
16173;SDS011;14031;50.158;8.626;2023-04-15T13:42:59;0.87;;;0.87;;
16173;SDS011;14031;50.158;8.626;2023-04-15T13:45:26;0.97;;;0.97;;
16173;SDS011;14031;50.158;8.626;2023-04-15T13:47:52;3.20;;;0.73;;
16173;SDS011;14031;50.158;8.626;2023-04-15T13:50:21;0.70;;;0.70;;
16173;SDS011;14031;50.158;8.626;2023-04-15T13:52:49;0.90;;;0.90;;
16173;SDS011;14031;50.158;8.626;2023-04-15T13:55:15;0.63;;;0.63;;
16173;SDS011;14031;50.158;8.626;2023-04-15T13:57:42;1.90;;;0.80;;
16173;SDS011;14031;50.158;8.626;2023-04-15T14:00:10;0.70;;;0.70;;
16173;SDS011;14031;50.158;8.626;2023-04-15T14:02:38;0.80;;;0.80;;
16173;SDS011;14031;50.158;8.626;2023-04-15T14:05:05;0.80;;;0.80;;
16173;SDS011;14031;50.158;8.626;2023-04-15T14:07:32;0.50;;;0.50;;
16173;SDS011;14031;50.158;8.626;2023-04-15T14:10:01;0.60;;;0.60;;
16173;SDS011;14031;50.158;8.626;2023-04-15T14:12:28;0.57;;;0.57;;
16173;SDS011;14031;50.158;8.626;2023-04-15T14:14:55;0.53;;;0.53;;
16173;SDS011;14031;50.158;8.626;2023-04-15T14:17:22;0.60;;;0.60;;
16173;SDS011;14031;50.158;8.626;2023-04-15T14:19:49;0.80;;;0.80;;
16173;SDS011;14031;50.158;8.626;2023-04-15T14:22:15;0.80;;;0.80;;
16173;SDS011;14031;50.158;8.626;2023-04-15T14:24:43;0.83;;;0.83;;
16173;SDS011;14031;50.158;8.626;2023-04-15T14:27:11;0.70;;;0.70;;
16173;SDS011;14031;50.158;8.626;2023-04-15T14:29:38;1.13;;;1.13;;
16173;SDS011;14031;50.158;8.626;2023-04-15T14:32:05;0.90;;;0.90;;
16173;SDS011;14031;50.158;8.626;2023-04-15T14:34:32;0.80;;;0.80;;
16173;SDS011;14031;50.158;8.626;2023-04-15T14:36:58;0.90;;;0.90;;
16173;SDS011;14031;50.158;8.626;2023-04-15T14:39:25;0.90;;;0.90;;
16173;SDS011;14031;50.158;8.626;2023-04-15T14:41:52;0.83;;;0.83;;
16173;SDS011;14031;50.158;8.626;2023-04-15T14:44:21;0.80;;;0.80;;
16173;SDS011;14031;50.158;8.626;2023-04-15T14:46:48;0.90;;;0.90;;
16173;SDS011;14031;50.158;8.626;2023-04-15T14:49:15;1.10;;;1.10;;
16173;SDS011;14031;50.158;8.626;2023-04-15T14:51:42;0.90;;;0.90;;
16173;SDS011;14031;50.158;8.626;2023-04-15T14:54:10;1.20;;;1.10;;